sensor_id;sensor_type;location;lat;lon;timestamp;P1;durP1;ratioP1;P2;durP2;ratioP2
5173;SDS011;2606;50.934;6.934;2023-02-24T00:02:22;39.57;;;15.60;;
5173;SDS011;2606;50.934;6.934;2023-02-24T00:04:47;50.97;;;18.87;;
5173;SDS011;2606;50.934;6.934;2023-02-24T00:07:15;50.80;;;19.77;;
5173;SDS011;2606;50.934;6.934;2023-02-24T00:09:41;64.10;;;22.07;;
5173;SDS011;2606;50.934;6.934;2023-02-24T00:12:12;45.77;;;19.97;;
5173;SDS011;2606;50.934;6.934;2023-02-24T00:14:40;54.07;;;20.07;;
5173;SDS011;2606;50.934;6.934;2023-02-24T00:17:08;43.03;;;19.13;;
5173;SDS011;2606;50.934;6.934;2023-02-24T00:19:35;50.97;;;19.13;;
5173;SDS011;2606;50.934;6.934;2023-02-24T00:22:02;40.73;;;18.60;;
5173;SDS011;2606;50.934;6.934;2023-02-24T00:24:29;32.83;;;15.00;;
5173;SDS011;2606;50.934;6.934;2023-02-24T00:26:56;39.77;;;15.93;;
5173;SDS011;2606;50.934;6.934;2023-02-24T00:29:23;29.50;;;13.20;;
5173;SDS011;2606;50.934;6.934;2023-02-24T00:31:53;26.90;;;10.43;;
5173;SDS011;2606;50.934;6.934;2023-02-24T00:34:23;22.00;;;9.63;;
5173;SDS011;2606;50.934;6.934;2023-02-24T00:36:52;24.13;;;9.77;;
5173;SDS011;2606;50.934;6.934;2023-02-24T00:39:18;18.73;;;8.00;;
5173;SDS011;2606;50.934;6.934;2023-02-24T00:41:54;16.70;;;6.40;;
5173;SDS011;2606;50.934;6.934;2023-02-24T00:44:49;18.13;;;5.77;;
5173;SDS011;2606;50.934;6.934;2023-02-24T00:47:17;16.73;;;5.80;;
5173;SDS011;2606;50.934;6.934;2023-02-24T00:49:43;16.47;;;5.63;;
5173;SDS011;2606;50.934;6.934;2023-02-24T00:52:10;16.77;;;7.17;;
5173;SDS011;2606;50.934;6.934;2023-02-24T00:54:44;16.60;;;6.30;;
5173;SDS011;2606;50.934;6.934;2023-02-24T00:57:11;11.70;;;4.90;;
5173;SDS011;2606;50.934;6.934;2023-02-24T00:59:38;17.60;;;5.80;;
5173;SDS011;2606;50.934;6.934;2023-02-24T01:02:04;13.50;;;5.33;;
5173;SDS011;2606;50.934;6.934;2023-02-24T01:04:31;16.83;;;5.80;;
5173;SDS011;2606;50.934;6.934;2023-02-24T01:06:57;12.00;;;4.70;;
5173;SDS011;2606;50.934;6.934;2023-02-24T01:09:28;15.37;;;5.67;;
5173;SDS011;2606;50.934;6.934;2023-02-24T01:11:55;11.90;;;5.67;;
5173;SDS011;2606;50.934;6.934;2023-02-24T01:14:42;15.67;;;5.67;;
5173;SDS011;2606;50.934;6.934;2023-02-24T01:17:09;18.60;;;6.43;;
5173;SDS011;2606;50.934;6.934;2023-02-24T01:19:35;11.67;;;5.53;;
5173;SDS011;2606;50.934;6.934;2023-02-24T01:22:02;16.60;;;6.23;;
5173;SDS011;2606;50.934;6.934;2023-02-24T01:24:30;14.60;;;5.40;;
5173;SDS011;2606;50.934;6.934;2023-02-24T01:26:57;16.07;;;5.43;;
5173;SDS011;2606;50.934;6.934;2023-02-24T01:29:23;20.73;;;6.40;;
5173;SDS011;2606;50.934;6.934;2023-02-24T01:31:49;15.70;;;5.40;;
5173;SDS011;2606;50.934;6.934;2023-02-24T01:34:16;16.80;;;6.40;;
5173;SDS011;2606;50.934;6.934;2023-02-24T01:36:42;13.87;;;5.40;;
5173;SDS011;2606;50.934;6.934;2023-02-24T01:39:09;13.37;;;6.20;;
5173;SDS011;2606;50.934;6.934;2023-02-24T01:41:42;14.43;;;6.37;;
5173;SDS011;2606;50.934;6.934;2023-02-24T01:46:42;14.77;;;5.90;;
5173;SDS011;2606;50.934;6.934;2023-02-24T01:52:07;24.07;;;6.50;;
5173;SDS011;2606;50.934;6.934;2023-02-24T01:54:40;17.43;;;7.13;;
5173;SDS011;2606;50.934;6.934;2023-02-24T01:57:08;15.43;;;7.00;;
5173;SDS011;2606;50.934;6.934;2023-02-24T01:59:37;20.40;;;7.30;;
5173;SDS011;2606;50.934;6.934;2023-02-24T02:02:04;15.17;;;7.13;;
5173;SDS011;2606;50.934;6.934;2023-02-24T02:04:48;21.90;;;7.03;;
5173;SDS011;2606;50.934;6.934;2023-02-24T02:07:21;18.20;;;6.63;;
5173;SDS011;2606;50.934;6.934;2023-02-24T02:09:48;19.70;;;7.60;;
5173;SDS011;2606;50.934;6.934;2023-02-24T02:12:18;22.47;;;6.97;;
5173;SDS011;2606;50.934;6.934;2023-02-24T02:14:45;19.37;;;6.87;;
5173;SDS011;2606;50.934;6.934;2023-02-24T02:27:51;23.60;;;9.60;;
5173;SDS011;2606;50.934;6.934;2023-02-24T02:39:11;19.23;;;7.97;;
5173;SDS011;2606;50.934;6.934;2023-02-24T02:44:35;21.23;;;8.30;;
5173;SDS011;2606;50.934;6.934;2023-02-24T02:49:47;20.50;;;8.07;;
5173;SDS011;2606;50.934;6.934;2023-02-24T02:52:54;24.50;;;9.00;;
5173;SDS011;2606;50.934;6.934;2023-02-24T02:55:17;23.63;;;8.67;;
5173;SDS011;2606;50.934;6.934;2023-02-24T02:57:55;18.83;;;8.03;;
5173;SDS011;2606;50.934;6.934;2023-02-24T03:00:27;24.87;;;9.00;;
5173;SDS011;2606;50.934;6.934;2023-02-24T03:03:01;20.60;;;8.30;;
5173;SDS011;2606;50.934;6.934;2023-02-24T03:08:28;26.67;;;8.33;;
5173;SDS011;2606;50.934;6.934;2023-02-24T03:10:59;22.57;;;8.00;;
5173;SDS011;2606;50.934;6.934;2023-02-24T03:13:27;25.63;;;9.37;;
5173;SDS011;2606;50.934;6.934;2023-02-24T03:15:56;26.87;;;9.63;;
5173;SDS011;2606;50.934;6.934;2023-02-24T03:18:27;31.93;;;10.20;;
5173;SDS011;2606;50.934;6.934;2023-02-24T03:20:58;40.27;;;11.07;;
5173;SDS011;2606;50.934;6.934;2023-02-24T03:23:31;37.70;;;10.47;;
5173;SDS011;2606;50.934;6.934;2023-02-24T03:26:09;27.23;;;10.67;;
5173;SDS011;2606;50.934;6.934;2023-02-24T03:28:43;39.93;;;11.20;;
5173;SDS011;2606;50.934;6.934;2023-02-24T03:31:29;39.97;;;11.97;;
5173;SDS011;2606;50.934;6.934;2023-02-24T03:36:57;30.47;;;10.90;;
5173;SDS011;2606;50.934;6.934;2023-02-24T03:39:23;33.93;;;11.13;;
5173;SDS011;2606;50.934;6.934;2023-02-24T03:41:53;35.30;;;11.10;;
5173;SDS011;2606;50.934;6.934;2023-02-24T03:44:24;30.07;;;10.13;;
5173;SDS011;2606;50.934;6.934;2023-02-24T03:46:50;45.77;;;10.90;;
5173;SDS011;2606;50.934;6.934;2023-02-24T03:49:16;24.63;;;7.77;;
5173;SDS011;2606;50.934;6.934;2023-02-24T03:51:49;27.23;;;8.87;;
5173;SDS011;2606;50.934;6.934;2023-02-24T03:56:59;22.47;;;7.70;;
5173;SDS011;2606;50.934;6.934;2023-02-24T03:59:33;24.90;;;8.70;;
5173;SDS011;2606;50.934;6.934;2023-02-24T04:02:25;26.97;;;7.57;;
5173;SDS011;2606;50.934;6.934;2023-02-24T04:05:03;31.50;;;8.10;;
5173;SDS011;2606;50.934;6.934;2023-02-24T04:07:40;29.17;;;9.17;;
5173;SDS011;2606;50.934;6.934;2023-02-24T04:12:59;25.87;;;6.77;;
5173;SDS011;2606;50.934;6.934;2023-02-24T04:15:32;25.97;;;6.70;;
5173;SDS011;2606;50.934;6.934;2023-02-24T04:20:48;24.23;;;6.60;;
5173;SDS011;2606;50.934;6.934;2023-02-24T04:23:17;28.90;;;7.60;;
5173;SDS011;2606;50.934;6.934;2023-02-24T04:25:50;32.50;;;8.27;;
5173;SDS011;2606;50.934;6.934;2023-02-24T04:28:19;30.87;;;8.13;;
5173;SDS011;2606;50.934;6.934;2023-02-24T04:30:48;19.83;;;7.00;;
5173;SDS011;2606;50.934;6.934;2023-02-24T04:33:16;22.27;;;7.90;;
5173;SDS011;2606;50.934;6.934;2023-02-24T04:35:47;25.93;;;7.50;;
5173;SDS011;2606;50.934;6.934;2023-02-24T04:38:17;30.77;;;8.70;;
5173;SDS011;2606;50.934;6.934;2023-02-24T04:40:44;39.83;;;8.63;;
5173;SDS011;2606;50.934;6.934;2023-02-24T04:43:09;29.53;;;7.50;;
5173;SDS011;2606;50.934;6.934;2023-02-24T04:45:36;25.73;;;6.80;;
5173;SDS011;2606;50.934;6.934;2023-02-24T04:48:04;25.93;;;7.00;;
5173;SDS011;2606;50.934;6.934;2023-02-24T04:50:36;20.33;;;5.00;;
5173;SDS011;2606;50.934;6.934;2023-02-24T04:53:04;25.63;;;5.67;;
5173;SDS011;2606;50.934;6.934;2023-02-24T04:55:34;16.57;;;4.87;;
5173;SDS011;2606;50.934;6.934;2023-02-24T04:58:04;18.93;;;4.60;;
5173;SDS011;2606;50.934;6.934;2023-02-24T05:00:30;22.03;;;4.90;;
5173;SDS011;2606;50.934;6.934;2023-02-24T05:03:00;17.37;;;4.50;;
5173;SDS011;2606;50.934;6.934;2023-02-24T05:05:29;20.83;;;4.20;;
5173;SDS011;2606;50.934;6.934;2023-02-24T05:08:03;25.07;;;4.10;;
5173;SDS011;2606;50.934;6.934;2023-02-24T05:10:35;23.63;;;3.53;;
5173;SDS011;2606;50.934;6.934;2023-02-24T05:13:03;16.53;;;3.93;;
5173;SDS011;2606;50.934;6.934;2023-02-24T05:15:31;14.63;;;3.93;;
5173;SDS011;2606;50.934;6.934;2023-02-24T05:18:00;15.50;;;3.33;;
5173;SDS011;2606;50.934;6.934;2023-02-24T05:20:37;14.63;;;3.63;;
5173;SDS011;2606;50.934;6.934;2023-02-24T05:23:24;11.87;;;2.97;;
5173;SDS011;2606;50.934;6.934;2023-02-24T05:25:56;20.00;;;3.53;;
5173;SDS011;2606;50.934;6.934;2023-02-24T05:28:22;17.30;;;4.03;;
5173;SDS011;2606;50.934;6.934;2023-02-24T05:30:49;19.57;;;4.73;;
5173;SDS011;2606;50.934;6.934;2023-02-24T05:33:15;16.57;;;3.43;;
5173;SDS011;2606;50.934;6.934;2023-02-24T05:35:46;15.60;;;3.77;;
5173;SDS011;2606;50.934;6.934;2023-02-24T05:38:15;12.33;;;3.40;;
5173;SDS011;2606;50.934;6.934;2023-02-24T05:40:43;18.67;;;4.85;;
5173;SDS011;2606;50.934;6.934;2023-02-24T05:43:15;11.50;;;3.50;;
5173;SDS011;2606;50.934;6.934;2023-02-24T05:45:43;25.23;;;5.17;;
5173;SDS011;2606;50.934;6.934;2023-02-24T05:48:10;14.43;;;3.80;;
5173;SDS011;2606;50.934;6.934;2023-02-24T05:50:38;12.90;;;3.40;;
5173;SDS011;2606;50.934;6.934;2023-02-24T05:53:05;15.00;;;3.73;;
5173;SDS011;2606;50.934;6.934;2023-02-24T05:55:33;10.70;;;3.30;;
5173;SDS011;2606;50.934;6.934;2023-02-24T05:58:00;11.07;;;2.73;;
5173;SDS011;2606;50.934;6.934;2023-02-24T06:00:31;7.77;;;2.60;;
5173;SDS011;2606;50.934;6.934;2023-02-24T06:02:57;11.23;;;3.80;;
5173;SDS011;2606;50.934;6.934;2023-02-24T06:05:32;9.97;;;2.90;;
5173;SDS011;2606;50.934;6.934;2023-02-24T06:07:58;18.63;;;3.10;;
5173;SDS011;2606;50.934;6.934;2023-02-24T06:10:31;21.20;;;3.40;;
5173;SDS011;2606;50.934;6.934;2023-02-24T06:12:58;12.77;;;3.30;;
5173;SDS011;2606;50.934;6.934;2023-02-24T06:15:26;10.80;;;2.57;;
5173;SDS011;2606;50.934;6.934;2023-02-24T06:17:52;15.63;;;3.27;;
5173;SDS011;2606;50.934;6.934;2023-02-24T06:20:21;10.50;;;3.97;;
5173;SDS011;2606;50.934;6.934;2023-02-24T06:22:50;11.23;;;2.13;;
5173;SDS011;2606;50.934;6.934;2023-02-24T06:25:18;9.40;;;2.20;;
5173;SDS011;2606;50.934;6.934;2023-02-24T06:27:45;6.27;;;2.30;;
5173;SDS011;2606;50.934;6.934;2023-02-24T06:30:17;12.37;;;2.50;;
5173;SDS011;2606;50.934;6.934;2023-02-24T06:32:43;20.47;;;3.10;;
5173;SDS011;2606;50.934;6.934;2023-02-24T06:35:09;17.70;;;2.97;;
5173;SDS011;2606;50.934;6.934;2023-02-24T06:37:36;14.00;;;2.73;;
5173;SDS011;2606;50.934;6.934;2023-02-24T06:40:03;11.50;;;2.33;;
5173;SDS011;2606;50.934;6.934;2023-02-24T06:42:39;18.10;;;3.00;;
5173;SDS011;2606;50.934;6.934;2023-02-24T06:45:08;17.37;;;3.00;;
5173;SDS011;2606;50.934;6.934;2023-02-24T06:47:35;14.37;;;2.60;;
5173;SDS011;2606;50.934;6.934;2023-02-24T06:50:01;10.73;;;3.13;;
5173;SDS011;2606;50.934;6.934;2023-02-24T06:52:30;9.07;;;2.97;;
5173;SDS011;2606;50.934;6.934;2023-02-24T06:54:57;15.43;;;3.80;;
5173;SDS011;2606;50.934;6.934;2023-02-24T06:57:22;22.90;;;4.20;;
5173;SDS011;2606;50.934;6.934;2023-02-24T06:59:48;11.97;;;3.80;;
5173;SDS011;2606;50.934;6.934;2023-02-24T07:02:14;8.40;;;2.77;;
5173;SDS011;2606;50.934;6.934;2023-02-24T07:04:41;8.20;;;1.87;;
5173;SDS011;2606;50.934;6.934;2023-02-24T07:07:10;5.67;;;2.00;;
5173;SDS011;2606;50.934;6.934;2023-02-24T07:09:38;10.33;;;2.00;;
5173;SDS011;2606;50.934;6.934;2023-02-24T07:12:05;12.97;;;2.63;;
5173;SDS011;2606;50.934;6.934;2023-02-24T07:14:32;9.77;;;2.07;;
5173;SDS011;2606;50.934;6.934;2023-02-24T07:16:57;13.30;;;2.40;;
5173;SDS011;2606;50.934;6.934;2023-02-24T07:19:24;3.70;;;2.00;;
5173;SDS011;2606;50.934;6.934;2023-02-24T07:21:54;11.37;;;2.27;;
5173;SDS011;2606;50.934;6.934;2023-02-24T07:24:24;10.03;;;2.53;;
5173;SDS011;2606;50.934;6.934;2023-02-24T07:26:57;10.83;;;2.07;;
5173;SDS011;2606;50.934;6.934;2023-02-24T07:29:25;14.97;;;2.70;;
5173;SDS011;2606;50.934;6.934;2023-02-24T07:31:51;7.83;;;2.37;;
5173;SDS011;2606;50.934;6.934;2023-02-24T07:34:19;19.73;;;2.53;;
5173;SDS011;2606;50.934;6.934;2023-02-24T07:36:48;18.40;;;2.40;;
5173;SDS011;2606;50.934;6.934;2023-02-24T07:39:15;10.10;;;2.90;;
5173;SDS011;2606;50.934;6.934;2023-02-24T07:41:42;12.37;;;2.30;;
5173;SDS011;2606;50.934;6.934;2023-02-24T07:44:13;11.03;;;2.17;;
5173;SDS011;2606;50.934;6.934;2023-02-24T07:46:39;8.20;;;2.23;;
5173;SDS011;2606;50.934;6.934;2023-02-24T07:49:07;8.20;;;2.73;;
5173;SDS011;2606;50.934;6.934;2023-02-24T07:51:38;11.43;;;2.13;;
5173;SDS011;2606;50.934;6.934;2023-02-24T07:54:05;16.13;;;2.93;;
5173;SDS011;2606;50.934;6.934;2023-02-24T07:56:32;21.27;;;1.97;;
5173;SDS011;2606;50.934;6.934;2023-02-24T07:58:59;15.50;;;2.90;;
5173;SDS011;2606;50.934;6.934;2023-02-24T08:01:28;16.53;;;2.60;;
5173;SDS011;2606;50.934;6.934;2023-02-24T08:03:55;8.87;;;2.10;;
5173;SDS011;2606;50.934;6.934;2023-02-24T08:06:28;14.43;;;2.70;;
5173;SDS011;2606;50.934;6.934;2023-02-24T08:09:03;5.10;;;1.90;;
5173;SDS011;2606;50.934;6.934;2023-02-24T08:11:45;8.10;;;2.27;;
5173;SDS011;2606;50.934;6.934;2023-02-24T08:16:45;8.90;;;2.30;;
5173;SDS011;2606;50.934;6.934;2023-02-24T08:19:14;7.07;;;1.80;;
5173;SDS011;2606;50.934;6.934;2023-02-24T08:21:45;11.00;;;3.70;;
5173;SDS011;2606;50.934;6.934;2023-02-24T08:24:14;6.90;;;1.50;;
5173;SDS011;2606;50.934;6.934;2023-02-24T08:26:43;23.10;;;3.13;;
5173;SDS011;2606;50.934;6.934;2023-02-24T08:29:10;14.20;;;2.03;;
5173;SDS011;2606;50.934;6.934;2023-02-24T08:31:36;7.43;;;2.20;;
5173;SDS011;2606;50.934;6.934;2023-02-24T08:34:02;14.07;;;2.50;;
5173;SDS011;2606;50.934;6.934;2023-02-24T08:36:27;7.50;;;2.17;;
5173;SDS011;2606;50.934;6.934;2023-02-24T08:38:53;12.93;;;2.43;;
5173;SDS011;2606;50.934;6.934;2023-02-24T08:41:23;6.53;;;2.53;;
5173;SDS011;2606;50.934;6.934;2023-02-24T08:44:08;4.37;;;1.93;;
5173;SDS011;2606;50.934;6.934;2023-02-24T08:46:36;7.97;;;2.47;;
5173;SDS011;2606;50.934;6.934;2023-02-24T08:49:03;10.40;;;2.37;;
5173;SDS011;2606;50.934;6.934;2023-02-24T08:51:34;11.07;;;3.20;;
5173;SDS011;2606;50.934;6.934;2023-02-24T08:54:08;8.80;;;2.47;;
5173;SDS011;2606;50.934;6.934;2023-02-24T08:56:39;15.53;;;3.37;;
5173;SDS011;2606;50.934;6.934;2023-02-24T08:59:13;11.53;;;2.70;;
5173;SDS011;2606;50.934;6.934;2023-02-24T09:02:19;14.70;;;3.03;;
5173;SDS011;2606;50.934;6.934;2023-02-24T09:07:25;13.43;;;2.90;;
5173;SDS011;2606;50.934;6.934;2023-02-24T09:09:52;13.33;;;3.43;;
5173;SDS011;2606;50.934;6.934;2023-02-24T09:12:23;13.10;;;2.80;;
5173;SDS011;2606;50.934;6.934;2023-02-24T09:14:51;11.53;;;2.90;;
5173;SDS011;2606;50.934;6.934;2023-02-24T09:17:20;10.67;;;2.20;;
5173;SDS011;2606;50.934;6.934;2023-02-24T09:20:04;16.53;;;2.83;;
5173;SDS011;2606;50.934;6.934;2023-02-24T09:23:00;13.87;;;2.50;;
5173;SDS011;2606;50.934;6.934;2023-02-24T09:25:34;14.10;;;3.07;;
5173;SDS011;2606;50.934;6.934;2023-02-24T09:28:12;7.10;;;2.80;;
5173;SDS011;2606;50.934;6.934;2023-02-24T09:30:42;17.97;;;2.60;;
5173;SDS011;2606;50.934;6.934;2023-02-24T09:33:18;10.43;;;3.00;;
5173;SDS011;2606;50.934;6.934;2023-02-24T09:38:15;16.73;;;2.77;;
5173;SDS011;2606;50.934;6.934;2023-02-24T09:40:44;11.52;;;2.85;;
5173;SDS011;2606;50.934;6.934;2023-02-24T09:43:21;8.67;;;2.20;;
5173;SDS011;2606;50.934;6.934;2023-02-24T09:46:03;16.23;;;2.53;;
5173;SDS011;2606;50.934;6.934;2023-02-24T09:48:41;11.23;;;2.40;;
5173;SDS011;2606;50.934;6.934;2023-02-24T09:51:19;9.10;;;2.70;;
5173;SDS011;2606;50.934;6.934;2023-02-24T09:53:50;4.33;;;2.97;;
5173;SDS011;2606;50.934;6.934;2023-02-24T09:56:31;9.37;;;2.93;;
5173;SDS011;2606;50.934;6.934;2023-02-24T09:59:24;12.77;;;2.90;;
5173;SDS011;2606;50.934;6.934;2023-02-24T10:02:17;14.57;;;2.17;;
5173;SDS011;2606;50.934;6.934;2023-02-24T10:04:53;6.83;;;2.10;;
5173;SDS011;2606;50.934;6.934;2023-02-24T10:07:39;8.73;;;2.47;;
5173;SDS011;2606;50.934;6.934;2023-02-24T10:10:19;8.67;;;2.50;;
5173;SDS011;2606;50.934;6.934;2023-02-24T10:12:57;5.53;;;2.47;;
5173;SDS011;2606;50.934;6.934;2023-02-24T10:15:37;8.30;;;2.90;;
5173;SDS011;2606;50.934;6.934;2023-02-24T10:18:26;3.53;;;1.97;;
5173;SDS011;2606;50.934;6.934;2023-02-24T10:23:48;3.83;;;2.30;;
5173;SDS011;2606;50.934;6.934;2023-02-24T10:26:28;14.17;;;3.70;;
5173;SDS011;2606;50.934;6.934;2023-02-24T10:29:31;12.07;;;2.90;;
5173;SDS011;2606;50.934;6.934;2023-02-24T10:32:04;5.10;;;2.13;;
5173;SDS011;2606;50.934;6.934;2023-02-24T10:34:47;5.77;;;2.27;;
5173;SDS011;2606;50.934;6.934;2023-02-24T10:37:18;7.57;;;3.00;;
5173;SDS011;2606;50.934;6.934;2023-02-24T10:39:47;7.80;;;2.93;;
5173;SDS011;2606;50.934;6.934;2023-02-24T10:42:23;9.27;;;2.80;;
5173;SDS011;2606;50.934;6.934;2023-02-24T10:44:51;7.80;;;2.33;;
5173;SDS011;2606;50.934;6.934;2023-02-24T10:47:36;7.63;;;2.67;;
5173;SDS011;2606;50.934;6.934;2023-02-24T10:50:17;10.07;;;2.87;;
5173;SDS011;2606;50.934;6.934;2023-02-24T10:52:47;8.40;;;2.90;;
5173;SDS011;2606;50.934;6.934;2023-02-24T10:55:24;39.20;;;22.50;;
5173;SDS011;2606;50.934;6.934;2023-02-24T10:57:59;4.90;;;3.17;;
5173;SDS011;2606;50.934;6.934;2023-02-24T11:00:45;9.73;;;3.33;;
5173;SDS011;2606;50.934;6.934;2023-02-24T11:03:25;16.97;;;4.27;;
5173;SDS011;2606;50.934;6.934;2023-02-24T11:06:15;10.40;;;2.83;;
5173;SDS011;2606;50.934;6.934;2023-02-24T11:18:03;5.97;;;2.40;;
5173;SDS011;2606;50.934;6.934;2023-02-24T11:23:02;8.90;;;2.70;;
5173;SDS011;2606;50.934;6.934;2023-02-24T11:25:36;15.23;;;2.97;;
5173;SDS011;2606;50.934;6.934;2023-02-24T11:28:20;8.73;;;2.67;;
5173;SDS011;2606;50.934;6.934;2023-02-24T11:30:52;12.03;;;2.13;;
5173;SDS011;2606;50.934;6.934;2023-02-24T11:33:29;9.67;;;3.10;;
5173;SDS011;2606;50.934;6.934;2023-02-24T11:39:02;7.07;;;2.50;;
5173;SDS011;2606;50.934;6.934;2023-02-24T11:41:34;13.20;;;3.17;;
5173;SDS011;2606;50.934;6.934;2023-02-24T11:46:43;10.53;;;2.60;;
5173;SDS011;2606;50.934;6.934;2023-02-24T11:49:20;6.70;;;2.47;;
5173;SDS011;2606;50.934;6.934;2023-02-24T11:52:00;13.77;;;2.70;;
5173;SDS011;2606;50.934;6.934;2023-02-24T11:54:29;16.47;;;2.93;;
5173;SDS011;2606;50.934;6.934;2023-02-24T11:57:02;11.33;;;2.90;;
5173;SDS011;2606;50.934;6.934;2023-02-24T11:59:36;10.00;;;2.20;;
5173;SDS011;2606;50.934;6.934;2023-02-24T12:04:59;10.00;;;2.80;;
5173;SDS011;2606;50.934;6.934;2023-02-24T12:07:35;7.80;;;2.60;;
5173;SDS011;2606;50.934;6.934;2023-02-24T12:10:06;5.60;;;2.20;;
5173;SDS011;2606;50.934;6.934;2023-02-24T12:15:23;10.87;;;2.90;;
5173;SDS011;2606;50.934;6.934;2023-02-24T12:20:50;7.30;;;2.63;;
5173;SDS011;2606;50.934;6.934;2023-02-24T12:23:36;7.90;;;3.27;;
5173;SDS011;2606;50.934;6.934;2023-02-24T12:31:33;4.80;;;2.83;;
5173;SDS011;2606;50.934;6.934;2023-02-24T12:42:31;10.33;;;3.10;;
5173;SDS011;2606;50.934;6.934;2023-02-24T12:48:02;8.07;;;2.73;;
5173;SDS011;2606;50.934;6.934;2023-02-24T12:50:45;5.97;;;2.90;;
5173;SDS011;2606;50.934;6.934;2023-02-24T12:58:38;11.70;;;4.60;;
5173;SDS011;2606;50.934;6.934;2023-02-24T13:01:11;19.93;;;3.30;;
5173;SDS011;2606;50.934;6.934;2023-02-24T13:11:54;10.13;;;3.90;;
5173;SDS011;2606;50.934;6.934;2023-02-24T13:19:34;5.30;;;3.43;;
5173;SDS011;2606;50.934;6.934;2023-02-24T13:24:31;6.77;;;3.20;;
5173;SDS011;2606;50.934;6.934;2023-02-24T13:27:15;6.93;;;3.70;;
5173;SDS011;2606;50.934;6.934;2023-02-24T13:29:49;5.40;;;3.30;;
5173;SDS011;2606;50.934;6.934;2023-02-24T13:34:49;18.53;;;4.30;;
5173;SDS011;2606;50.934;6.934;2023-02-24T13:37:29;16.40;;;4.93;;
5173;SDS011;2606;50.934;6.934;2023-02-24T13:39:56;9.27;;;4.00;;
5173;SDS011;2606;50.934;6.934;2023-02-24T13:42:23;5.07;;;2.80;;
5173;SDS011;2606;50.934;6.934;2023-02-24T13:47:35;11.90;;;3.50;;
5173;SDS011;2606;50.934;6.934;2023-02-24T13:50:16;7.80;;;3.07;;
5173;SDS011;2606;50.934;6.934;2023-02-24T14:01:03;7.13;;;2.70;;
5173;SDS011;2606;50.934;6.934;2023-02-24T14:03:29;11.57;;;3.10;;
5173;SDS011;2606;50.934;6.934;2023-02-24T14:05:56;9.10;;;2.80;;
5173;SDS011;2606;50.934;6.934;2023-02-24T14:11:12;7.07;;;2.73;;
5173;SDS011;2606;50.934;6.934;2023-02-24T14:13:39;10.17;;;2.80;;
5173;SDS011;2606;50.934;6.934;2023-02-24T14:16:13;11.90;;;3.30;;
5173;SDS011;2606;50.934;6.934;2023-02-24T14:18:53;11.53;;;2.87;;
5173;SDS011;2606;50.934;6.934;2023-02-24T14:21:22;6.03;;;2.67;;
5173;SDS011;2606;50.934;6.934;2023-02-24T14:26:24;12.15;;;3.50;;
5173;SDS011;2606;50.934;6.934;2023-02-24T14:28:59;11.60;;;2.73;;
5173;SDS011;2606;50.934;6.934;2023-02-24T14:31:26;8.00;;;2.93;;
5173;SDS011;2606;50.934;6.934;2023-02-24T14:33:57;8.10;;;2.90;;
5173;SDS011;2606;50.934;6.934;2023-02-24T14:36:26;8.23;;;2.63;;
5173;SDS011;2606;50.934;6.934;2023-02-24T14:39:06;9.50;;;2.70;;
5173;SDS011;2606;50.934;6.934;2023-02-24T14:41:36;15.33;;;2.77;;
5173;SDS011;2606;50.934;6.934;2023-02-24T14:44:16;4.60;;;2.00;;
5173;SDS011;2606;50.934;6.934;2023-02-24T14:46:49;5.70;;;2.30;;
5173;SDS011;2606;50.934;6.934;2023-02-24T14:49:21;6.03;;;2.17;;
5173;SDS011;2606;50.934;6.934;2023-02-24T14:51:50;12.53;;;3.03;;
5173;SDS011;2606;50.934;6.934;2023-02-24T14:54:23;8.43;;;2.83;;
5173;SDS011;2606;50.934;6.934;2023-02-24T14:57:12;6.53;;;2.57;;
5173;SDS011;2606;50.934;6.934;2023-02-24T14:59:42;6.10;;;2.37;;
5173;SDS011;2606;50.934;6.934;2023-02-24T15:02:17;8.33;;;2.47;;
5173;SDS011;2606;50.934;6.934;2023-02-24T15:04:46;8.47;;;2.70;;
5173;SDS011;2606;50.934;6.934;2023-02-24T15:09:46;15.27;;;3.30;;
5173;SDS011;2606;50.934;6.934;2023-02-24T15:14:52;8.37;;;3.30;;
5173;SDS011;2606;50.934;6.934;2023-02-24T15:17:21;17.30;;;2.83;;
5173;SDS011;2606;50.934;6.934;2023-02-24T15:19:48;10.67;;;3.63;;
5173;SDS011;2606;50.934;6.934;2023-02-24T15:22:28;12.50;;;3.00;;
5173;SDS011;2606;50.934;6.934;2023-02-24T15:27:51;10.40;;;3.00;;
5173;SDS011;2606;50.934;6.934;2023-02-24T15:30:30;11.37;;;3.90;;
5173;SDS011;2606;50.934;6.934;2023-02-24T15:33:00;4.00;;;2.30;;
5173;SDS011;2606;50.934;6.934;2023-02-24T15:35:26;11.83;;;2.97;;
5173;SDS011;2606;50.934;6.934;2023-02-24T15:37:52;17.00;;;2.67;;
5173;SDS011;2606;50.934;6.934;2023-02-24T15:40:20;11.10;;;4.30;;
5173;SDS011;2606;50.934;6.934;2023-02-24T15:42:51;8.33;;;2.70;;
5173;SDS011;2606;50.934;6.934;2023-02-24T15:45:33;10.53;;;2.83;;
5173;SDS011;2606;50.934;6.934;2023-02-24T15:48:01;12.27;;;3.53;;
5173;SDS011;2606;50.934;6.934;2023-02-24T15:50:29;6.67;;;3.13;;
5173;SDS011;2606;50.934;6.934;2023-02-24T15:52:56;8.47;;;3.60;;
5173;SDS011;2606;50.934;6.934;2023-02-24T15:55:23;10.60;;;4.30;;
5173;SDS011;2606;50.934;6.934;2023-02-24T15:57:58;7.77;;;2.73;;
5173;SDS011;2606;50.934;6.934;2023-02-24T16:00:26;12.90;;;3.77;;
5173;SDS011;2606;50.934;6.934;2023-02-24T16:02:52;11.17;;;4.00;;
5173;SDS011;2606;50.934;6.934;2023-02-24T16:05:18;8.10;;;3.37;;
5173;SDS011;2606;50.934;6.934;2023-02-24T16:07:44;12.73;;;3.17;;
5173;SDS011;2606;50.934;6.934;2023-02-24T16:10:22;9.60;;;4.00;;
5173;SDS011;2606;50.934;6.934;2023-02-24T16:12:51;20.10;;;3.87;;
5173;SDS011;2606;50.934;6.934;2023-02-24T16:15:22;5.60;;;2.83;;
5173;SDS011;2606;50.934;6.934;2023-02-24T16:17:53;6.90;;;3.07;;
5173;SDS011;2606;50.934;6.934;2023-02-24T16:20:24;8.07;;;3.27;;
5173;SDS011;2606;50.934;6.934;2023-02-24T16:22:59;4.60;;;3.33;;
5173;SDS011;2606;50.934;6.934;2023-02-24T16:25:26;9.83;;;3.80;;
5173;SDS011;2606;50.934;6.934;2023-02-24T16:27:54;12.13;;;4.00;;
5173;SDS011;2606;50.934;6.934;2023-02-24T16:30:26;9.80;;;3.60;;
5173;SDS011;2606;50.934;6.934;2023-02-24T16:32:54;11.73;;;4.17;;
5173;SDS011;2606;50.934;6.934;2023-02-24T16:35:20;10.80;;;3.73;;
5173;SDS011;2606;50.934;6.934;2023-02-24T16:37:46;12.80;;;3.67;;
5173;SDS011;2606;50.934;6.934;2023-02-24T16:40:23;8.93;;;4.03;;
5173;SDS011;2606;50.934;6.934;2023-02-24T16:42:51;14.20;;;4.93;;
5173;SDS011;2606;50.934;6.934;2023-02-24T16:45:18;8.67;;;3.60;;
5173;SDS011;2606;50.934;6.934;2023-02-24T16:47:45;8.30;;;3.63;;
5173;SDS011;2606;50.934;6.934;2023-02-24T16:50:16;11.80;;;3.50;;
5173;SDS011;2606;50.934;6.934;2023-02-24T16:52:46;16.67;;;3.87;;
5173;SDS011;2606;50.934;6.934;2023-02-24T16:55:12;6.83;;;3.20;;
5173;SDS011;2606;50.934;6.934;2023-02-24T16:57:38;5.63;;;3.43;;
5173;SDS011;2606;50.934;6.934;2023-02-24T17:00:05;9.30;;;3.37;;
5173;SDS011;2606;50.934;6.934;2023-02-24T17:02:34;13.57;;;4.20;;
5173;SDS011;2606;50.934;6.934;2023-02-24T17:04:59;7.97;;;3.83;;
5173;SDS011;2606;50.934;6.934;2023-02-24T17:07:25;8.17;;;3.83;;
5173;SDS011;2606;50.934;6.934;2023-02-24T17:09:51;6.17;;;3.00;;
5173;SDS011;2606;50.934;6.934;2023-02-24T17:12:18;10.03;;;4.40;;
5173;SDS011;2606;50.934;6.934;2023-02-24T17:14:45;9.80;;;4.20;;
5173;SDS011;2606;50.934;6.934;2023-02-24T17:17:11;11.30;;;4.50;;
5173;SDS011;2606;50.934;6.934;2023-02-24T17:19:36;13.00;;;5.40;;
5173;SDS011;2606;50.934;6.934;2023-02-24T17:22:02;13.40;;;5.53;;
5173;SDS011;2606;50.934;6.934;2023-02-24T17:24:28;13.43;;;5.47;;
5173;SDS011;2606;50.934;6.934;2023-02-24T17:26:54;17.83;;;4.87;;
5173;SDS011;2606;50.934;6.934;2023-02-24T17:29:23;8.50;;;4.43;;
5173;SDS011;2606;50.934;6.934;2023-02-24T17:31:49;7.80;;;3.80;;
5173;SDS011;2606;50.934;6.934;2023-02-24T17:34:14;15.43;;;5.37;;
5173;SDS011;2606;50.934;6.934;2023-02-24T17:36:40;13.83;;;5.40;;
5173;SDS011;2606;50.934;6.934;2023-02-24T17:39:05;9.53;;;5.10;;
5173;SDS011;2606;50.934;6.934;2023-02-24T17:41:31;11.93;;;5.37;;
5173;SDS011;2606;50.934;6.934;2023-02-24T17:43:57;10.50;;;5.27;;
5173;SDS011;2606;50.934;6.934;2023-02-24T17:46:22;9.07;;;5.07;;
5173;SDS011;2606;50.934;6.934;2023-02-24T17:48:48;11.23;;;5.37;;
5173;SDS011;2606;50.934;6.934;2023-02-24T17:51:14;11.57;;;5.40;;
5173;SDS011;2606;50.934;6.934;2023-02-24T17:53:41;16.13;;;5.00;;
5173;SDS011;2606;50.934;6.934;2023-02-24T17:56:07;7.20;;;4.40;;